sensor_id;sensor_type;location;lat;lon;timestamp;pressure;altitude;pressure_sealevel;temperature;humidity
65666;BME280;52365;47.464;18.976;2023-06-24T00:00:10;99863.56;;;21.11;65.44
65666;BME280;52365;47.464;18.976;2023-06-24T00:00:32;99862.56;;;21.27;64.62
65666;BME280;52365;47.464;18.976;2023-06-24T00:00:54;99877.59;;;21.40;63.96
65666;BME280;52365;47.464;18.976;2023-06-24T00:01:15;99870.94;;;21.48;63.63
65666;BME280;52365;47.464;18.976;2023-06-24T00:01:37;99875.47;;;21.46;63.60
65666;BME280;52365;47.464;18.976;2023-06-24T00:01:59;99865.56;;;21.43;63.70
65666;BME280;52365;47.464;18.976;2023-06-24T00:02:20;99869.56;;;21.42;63.64
65666;BME280;52365;47.464;18.976;2023-06-24T00:02:44;99877.16;;;21.35;63.65
65666;BME280;52365;47.464;18.976;2023-06-24T00:03:06;99877.78;;;21.55;63.47
65666;BME280;52365;47.464;18.976;2023-06-24T00:03:28;99881.69;;;21.59;63.22
65666;BME280;52365;47.464;18.976;2023-06-24T00:03:49;99872.53;;;21.57;63.45
65666;BME280;52365;47.464;18.976;2023-06-24T00:04:13;99875.38;;;21.38;63.80
65666;BME280;52365;47.464;18.976;2023-06-24T00:04:39;99871.06;;;21.43;63.92
65666;BME280;52365;47.464;18.976;2023-06-24T00:05:01;99891.84;;;21.19;65.04
65666;BME280;52365;47.464;18.976;2023-06-24T00:05:23;99878.63;;;21.50;64.47
65666;BME280;52365;47.464;18.976;2023-06-24T00:05:44;99887.94;;;21.47;64.12
65666;BME280;52365;47.464;18.976;2023-06-24T00:06:09;99882.62;;;21.35;64.56
65666;BME280;52365;47.464;18.976;2023-06-24T00:06:31;99886.63;;;21.02;65.91
65666;BME280;52365;47.464;18.976;2023-06-24T00:06:52;99884.75;;;21.10;65.83
65666;BME280;52365;47.464;18.976;2023-06-24T00:07:13;99886.37;;;21.19;65.71
65666;BME280;52365;47.464;18.976;2023-06-24T00:07:34;99890.62;;;21.33;65.10
65666;BME280;52365;47.464;18.976;2023-06-24T00:08:04;99884.97;;;21.45;64.79
65666;BME280;52365;47.464;18.976;2023-06-24T00:08:28;99882.66;;;21.49;64.18
65666;BME280;52365;47.464;18.976;2023-06-24T00:08:54;99879.78;;;21.41;64.15
65666;BME280;52365;47.464;18.976;2023-06-24T00:09:21;99870.41;;;21.36;63.97
65666;BME280;52365;47.464;18.976;2023-06-24T00:09:42;99875.25;;;21.44;63.88
65666;BME280;52365;47.464;18.976;2023-06-24T00:10:03;99865.09;;;21.25;63.87
65666;BME280;52365;47.464;18.976;2023-06-24T00:10:24;99878.81;;;21.25;63.86
65666;BME280;52365;47.464;18.976;2023-06-24T00:10:46;99869.97;;;21.32;63.52
65666;BME280;52365;47.464;18.976;2023-06-24T00:11:07;99874.38;;;21.22;63.83
65666;BME280;52365;47.464;18.976;2023-06-24T00:11:29;99871.44;;;21.33;63.44
65666;BME280;52365;47.464;18.976;2023-06-24T00:11:50;99869.13;;;21.37;63.14
65666;BME280;52365;47.464;18.976;2023-06-24T00:12:11;99874.94;;;21.34;62.95
65666;BME280;52365;47.464;18.976;2023-06-24T00:12:40;99865.53;;;21.29;63.18
65666;BME280;52365;47.464;18.976;2023-06-24T00:13:01;99861.38;;;21.09;63.49
65666;BME280;52365;47.464;18.976;2023-06-24T00:13:23;99858.84;;;21.11;63.51
65666;BME280;52365;47.464;18.976;2023-06-24T00:13:44;99859.69;;;21.20;63.08
65666;BME280;52365;47.464;18.976;2023-06-24T00:14:05;99873.63;;;21.22;62.85
65666;BME280;52365;47.464;18.976;2023-06-24T00:14:27;99876.47;;;21.16;63.52
65666;BME280;52365;47.464;18.976;2023-06-24T00:14:50;99880.28;;;21.26;63.26
65666;BME280;52365;47.464;18.976;2023-06-24T00:15:11;99869.31;;;21.26;63.24
65666;BME280;52365;47.464;18.976;2023-06-24T00:15:32;99868.41;;;21.37;63.08
65666;BME280;52365;47.464;18.976;2023-06-24T00:15:53;99869.97;;;21.46;62.46
65666;BME280;52365;47.464;18.976;2023-06-24T00:16:14;99883.78;;;21.40;62.54
65666;BME280;52365;47.464;18.976;2023-06-24T00:16:35;99883.91;;;21.48;62.54
65666;BME280;52365;47.464;18.976;2023-06-24T00:16:57;99876.31;;;21.54;62.18
65666;BME280;52365;47.464;18.976;2023-06-24T00:17:18;99893.72;;;21.56;61.61
65666;BME280;52365;47.464;18.976;2023-06-24T00:17:39;99877.38;;;21.51;61.75
65666;BME280;52365;47.464;18.976;2023-06-24T00:18:01;99876.97;;;21.73;61.21
65666;BME280;52365;47.464;18.976;2023-06-24T00:18:26;99873.56;;;21.67;61.10
65666;BME280;52365;47.464;18.976;2023-06-24T00:18:50;99886.34;;;21.51;61.85
65666;BME280;52365;47.464;18.976;2023-06-24T00:19:11;99886.34;;;21.51;62.13
65666;BME280;52365;47.464;18.976;2023-06-24T00:19:32;99885.09;;;21.52;62.14
65666;BME280;52365;47.464;18.976;2023-06-24T00:19:53;99882.31;;;21.39;62.46
65666;BME280;52365;47.464;18.976;2023-06-24T00:20:15;99873.56;;;21.41;62.46
65666;BME280;52365;47.464;18.976;2023-06-24T00:20:38;99892.22;;;21.42;62.03
65666;BME280;52365;47.464;18.976;2023-06-24T00:20:59;99882.53;;;21.41;61.94
65666;BME280;52365;47.464;18.976;2023-06-24T00:21:22;99896.72;;;21.26;62.56
65666;BME280;52365;47.464;18.976;2023-06-24T00:21:43;99875.38;;;21.06;62.92
65666;BME280;52365;47.464;18.976;2023-06-24T00:22:05;99883.28;;;21.09;63.03
65666;BME280;52365;47.464;18.976;2023-06-24T00:22:26;99878.37;;;21.21;63.26
65666;BME280;52365;47.464;18.976;2023-06-24T00:22:47;99888.66;;;21.34;63.09
65666;BME280;52365;47.464;18.976;2023-06-24T00:23:09;99874.59;;;21.37;63.07
65666;BME280;52365;47.464;18.976;2023-06-24T00:23:34;99882.62;;;21.35;63.10
65666;BME280;52365;47.464;18.976;2023-06-24T00:23:57;99881.06;;;21.53;62.92
65666;BME280;52365;47.464;18.976;2023-06-24T00:24:21;99872.19;;;21.34;63.17
65666;BME280;52365;47.464;18.976;2023-06-24T00:24:46;99880.28;;;21.26;63.42
65666;BME280;52365;47.464;18.976;2023-06-24T00:25:07;99871.25;;;21.31;63.30
65666;BME280;52365;47.464;18.976;2023-06-24T00:25:29;99886.37;;;21.19;63.52
65666;BME280;52365;47.464;18.976;2023-06-24T00:25:54;99870.28;;;21.42;63.17
65666;BME280;52365;47.464;18.976;2023-06-24T00:26:15;99868.50;;;21.31;62.98
65666;BME280;52365;47.464;18.976;2023-06-24T00:26:37;99872.94;;;21.48;63.02
65666;BME280;52365;47.464;18.976;2023-06-24T00:26:58;99865.78;;;21.58;62.39
65666;BME280;52365;47.464;18.976;2023-06-24T00:27:19;99869.25;;;21.58;62.42
65666;BME280;52365;47.464;18.976;2023-06-24T00:27:41;99868.09;;;21.54;62.50
65666;BME280;52365;47.464;18.976;2023-06-24T00:28:03;99871.06;;;21.43;62.84
65666;BME280;52365;47.464;18.976;2023-06-24T00:28:24;99868.81;;;21.41;62.19
65666;BME280;52365;47.464;18.976;2023-06-24T00:28:45;99872.66;;;21.51;61.91
65666;BME280;52365;47.464;18.976;2023-06-24T00:29:06;99873.56;;;21.54;61.60
65666;BME280;52365;47.464;18.976;2023-06-24T00:29:27;99868.69;;;21.33;62.50
65666;BME280;52365;47.464;18.976;2023-06-24T00:29:48;99869.69;;;21.49;62.39
65666;BME280;52365;47.464;18.976;2023-06-24T00:30:09;99865.06;;;21.12;63.34
65666;BME280;52365;47.464;18.976;2023-06-24T00:30:30;99850.09;;;21.13;63.16
65666;BME280;52365;47.464;18.976;2023-06-24T00:30:52;99857.19;;;21.22;62.42
65666;BME280;52365;47.464;18.976;2023-06-24T00:31:13;99862.22;;;21.18;62.44
65666;BME280;52365;47.464;18.976;2023-06-24T00:31:34;99859.91;;;21.08;62.73
65666;BME280;52365;47.464;18.976;2023-06-24T00:31:55;99851.78;;;20.71;63.88
65666;BME280;52365;47.464;18.976;2023-06-24T00:32:16;99844.78;;;20.88;63.89
65666;BME280;52365;47.464;18.976;2023-06-24T00:32:37;99854.22;;;20.74;63.94
65666;BME280;52365;47.464;18.976;2023-06-24T00:32:58;99850.25;;;20.88;64.04
65666;BME280;52365;47.464;18.976;2023-06-24T00:33:19;99854.69;;;20.92;63.72
65666;BME280;52365;47.464;18.976;2023-06-24T00:33:40;99847.31;;;20.86;64.00
65666;BME280;52365;47.464;18.976;2023-06-24T00:34:01;99845.16;;;20.79;64.01
65666;BME280;52365;47.464;18.976;2023-06-24T00:34:22;99857.13;;;20.95;63.80
65666;BME280;52365;47.464;18.976;2023-06-24T00:34:44;99857.06;;;21.14;63.15
65666;BME280;52365;47.464;18.976;2023-06-24T00:35:09;99851.78;;;21.03;63.29
65666;BME280;52365;47.464;18.976;2023-06-24T00:35:31;99847.34;;;21.00;62.77
65666;BME280;52365;47.464;18.976;2023-06-24T00:35:52;99858.06;;;20.98;62.71
65666;BME280;52365;47.464;18.976;2023-06-24T00:36:13;99857.03;;;21.01;62.68
65666;BME280;52365;47.464;18.976;2023-06-24T00:36:34;99852.19;;;21.07;62.39
65666;BME280;52365;47.464;18.976;2023-06-24T00:36:59;99861.13;;;20.94;62.52
65666;BME280;52365;47.464;18.976;2023-06-24T00:37:20;99858.28;;;21.00;63.06
65666;BME280;52365;47.464;18.976;2023-06-24T00:37:41;99858.81;;;20.98;62.65
65666;BME280;52365;47.464;18.976;2023-06-24T00:38:03;99857.91;;;21.09;62.01
65666;BME280;52365;47.464;18.976;2023-06-24T00:38:25;99858.00;;;21.03;61.93
65666;BME280;52365;47.464;18.976;2023-06-24T00:38:45;99854.72;;;21.05;62.12
65666;BME280;52365;47.464;18.976;2023-06-24T00:39:02;99858.53;;;21.15;61.95
65666;BME280;52365;47.464;18.976;2023-06-24T00:39:24;99859.78;;;21.14;61.75
65666;BME280;52365;47.464;18.976;2023-06-24T00:39:45;99858.78;;;21.30;61.43
65666;BME280;52365;47.464;18.976;2023-06-24T00:40:07;99863.56;;;21.11;61.65
65666;BME280;52365;47.464;18.976;2023-06-24T00:40:32;99852.44;;;21.22;61.51
65666;BME280;52365;47.464;18.976;2023-06-24T00:40:54;99848.87;;;20.82;62.49
65666;BME280;52365;47.464;18.976;2023-06-24T00:41:16;99854.41;;;21.08;62.31
65666;BME280;52365;47.464;18.976;2023-06-24T00:41:38;99859.59;;;21.12;61.87
65666;BME280;52365;47.464;18.976;2023-06-24T00:41:59;99863.25;;;21.01;61.99
65666;BME280;52365;47.464;18.976;2023-06-24T00:42:20;99863.97;;;21.02;61.51
65666;BME280;52365;47.464;18.976;2023-06-24T00:42:44;99863.44;;;20.90;61.67
65666;BME280;52365;47.464;18.976;2023-06-24T00:43:06;99863.31;;;20.82;62.09
65666;BME280;52365;47.464;18.976;2023-06-24T00:43:28;99868.84;;;21.09;61.75
65666;BME280;52365;47.464;18.976;2023-06-24T00:43:50;99860.84;;;21.24;61.32
65666;BME280;52365;47.464;18.976;2023-06-24T00:44:12;99864.50;;;21.32;60.76
65666;BME280;52365;47.464;18.976;2023-06-24T00:44:32;99859.22;;;21.34;60.84
65666;BME280;52365;47.464;18.976;2023-06-24T00:44:54;99860.22;;;21.05;61.30
65666;BME280;52365;47.464;18.976;2023-06-24T00:45:15;99862.06;;;20.97;61.55
65666;BME280;52365;47.464;18.976;2023-06-24T00:45:39;99862.75;;;21.03;61.35
65666;BME280;52365;47.464;18.976;2023-06-24T00:46:00;99859.78;;;21.01;61.53
65666;BME280;52365;47.464;18.976;2023-06-24T00:46:21;99849.06;;;21.16;61.18
65666;BME280;52365;47.464;18.976;2023-06-24T00:46:43;99865.78;;;20.99;62.08
65666;BME280;52365;47.464;18.976;2023-06-24T00:47:04;99862.50;;;21.01;61.90
65666;BME280;52365;47.464;18.976;2023-06-24T00:47:25;99851.38;;;21.12;61.38
65666;BME280;52365;47.464;18.976;2023-06-24T00:47:47;99858.25;;;20.86;61.80
65666;BME280;52365;47.464;18.976;2023-06-24T00:48:08;99858.06;;;20.98;62.00
65666;BME280;52365;47.464;18.976;2023-06-24T00:48:24;99851.97;;;21.05;61.43
65666;BME280;52365;47.464;18.976;2023-06-24T00:48:45;99855.69;;;21.07;61.30
65666;BME280;52365;47.464;18.976;2023-06-24T00:49:06;99862.63;;;21.08;61.33
65666;BME280;52365;47.464;18.976;2023-06-24T00:49:27;99862.78;;;21.29;60.70
65666;BME280;52365;47.464;18.976;2023-06-24T00:49:48;99857.06;;;21.14;61.01
65666;BME280;52365;47.464;18.976;2023-06-24T00:50:10;99851.41;;;21.25;61.04
65666;BME280;52365;47.464;18.976;2023-06-24T00:50:32;99856.53;;;21.29;60.56
65666;BME280;52365;47.464;18.976;2023-06-24T00:50:53;99858.28;;;21.00;61.12
65666;BME280;52365;47.464;18.976;2023-06-24T00:51:14;99849.78;;;21.03;61.08
65666;BME280;52365;47.464;18.976;2023-06-24T00:51:35;99852.31;;;21.15;60.93
65666;BME280;52365;47.464;18.976;2023-06-24T00:51:56;99842.56;;;21.32;60.09
65666;BME280;52365;47.464;18.976;2023-06-24T00:52:17;99843.16;;;21.25;60.03
65666;BME280;52365;47.464;18.976;2023-06-24T00:52:38;99848.31;;;21.29;59.82
65666;BME280;52365;47.464;18.976;2023-06-24T00:53:03;99834.84;;;21.31;59.60
65666;BME280;52365;47.464;18.976;2023-06-24T00:53:24;99845.62;;;21.42;59.55
65666;BME280;52365;47.464;18.976;2023-06-24T00:53:45;99842.78;;;21.48;59.32
65666;BME280;52365;47.464;18.976;2023-06-24T00:54:07;99839.75;;;21.51;59.37
65666;BME280;52365;47.464;18.976;2023-06-24T00:54:28;99834.34;;;21.46;59.07
65666;BME280;52365;47.464;18.976;2023-06-24T00:54:51;99836.13;;;21.30;59.53
65666;BME280;52365;47.464;18.976;2023-06-24T00:55:15;99840.66;;;21.41;59.55
65666;BME280;52365;47.464;18.976;2023-06-24T00:55:36;99843.53;;;21.35;59.60
65666;BME280;52365;47.464;18.976;2023-06-24T00:55:58;99839.72;;;21.38;59.70
65666;BME280;52365;47.464;18.976;2023-06-24T00:56:27;99835.38;;;21.29;60.07
65666;BME280;52365;47.464;18.976;2023-06-24T00:56:50;99843.78;;;21.18;60.48
65666;BME280;52365;47.464;18.976;2023-06-24T00:57:11;99842.56;;;21.46;59.82
65666;BME280;52365;47.464;18.976;2023-06-24T00:57:33;99826.44;;;21.42;59.40
65666;BME280;52365;47.464;18.976;2023-06-24T00:57:54;99835.03;;;21.20;59.28
65666;BME280;52365;47.464;18.976;2023-06-24T00:58:15;99844.09;;;21.15;59.38
65666;BME280;52365;47.464;18.976;2023-06-24T00:58:37;99842.63;;;21.27;59.16
65666;BME280;52365;47.464;18.976;2023-06-24T00:59:01;99845.00;;;21.36;58.87
65666;BME280;52365;47.464;18.976;2023-06-24T00:59:23;99845.69;;;21.23;59.01
65666;BME280;52365;47.464;18.976;2023-06-24T00:59:45;99845.31;;;21.32;58.94
65666;BME280;52365;47.464;18.976;2023-06-24T01:00:03;99842.06;;;21.47;58.50
65666;BME280;52365;47.464;18.976;2023-06-24T01:00:29;99846.56;;;21.31;58.94
65666;BME280;52365;47.464;18.976;2023-06-24T01:00:53;99846.34;;;21.29;58.75
65666;BME280;52365;47.464;18.976;2023-06-24T01:01:18;99852.00;;;21.18;58.70
65666;BME280;52365;47.464;18.976;2023-06-24T01:01:40;99849.41;;;20.94;59.60
65666;BME280;52365;47.464;18.976;2023-06-24T01:02:01;99852.91;;;20.94;59.77
65666;BME280;52365;47.464;18.976;2023-06-24T01:02:22;99851.81;;;21.16;59.26
65666;BME280;52365;47.464;18.976;2023-06-24T01:02:49;99843.03;;;21.04;59.23
65666;BME280;52365;47.464;18.976;2023-06-24T01:03:10;99859.91;;;21.08;58.96
65666;BME280;52365;47.464;18.976;2023-06-24T01:03:36;99852.31;;;21.15;58.72
65666;BME280;52365;47.464;18.976;2023-06-24T01:03:58;99847.78;;;21.17;58.77
65666;BME280;52365;47.464;18.976;2023-06-24T01:04:19;99840.56;;;21.33;58.45
65666;BME280;52365;47.464;18.976;2023-06-24T01:04:40;99846.03;;;21.33;57.92
65666;BME280;52365;47.464;18.976;2023-06-24T01:05:01;99844.75;;;21.21;58.66
65666;BME280;52365;47.464;18.976;2023-06-24T01:05:22;99848.47;;;21.36;58.17
65666;BME280;52365;47.464;18.976;2023-06-24T01:05:45;99849.59;;;21.28;57.86
65666;BME280;52365;47.464;18.976;2023-06-24T01:06:08;99849.69;;;21.09;58.54
65666;BME280;52365;47.464;18.976;2023-06-24T01:06:30;99840.31;;;21.18;58.62
65666;BME280;52365;47.464;18.976;2023-06-24T01:06:52;99836.84;;;21.17;58.26
65666;BME280;52365;47.464;18.976;2023-06-24T01:07:14;99838.47;;;20.94;58.67
65666;BME280;52365;47.464;18.976;2023-06-24T01:07:37;99858.53;;;21.15;58.49
65666;BME280;52365;47.464;18.976;2023-06-24T01:07:58;99841.53;;;20.90;58.77
65666;BME280;52365;47.464;18.976;2023-06-24T01:08:20;99841.13;;;20.99;58.53
65666;BME280;52365;47.464;18.976;2023-06-24T01:08:43;99839.81;;;20.87;58.74
65666;BME280;52365;47.464;18.976;2023-06-24T01:09:07;99844.19;;;21.09;58.37
65666;BME280;52365;47.464;18.976;2023-06-24T01:09:29;99838.88;;;20.98;58.29
65666;BME280;52365;47.464;18.976;2023-06-24T01:09:50;99834.81;;;21.18;58.07
65666;BME280;52365;47.464;18.976;2023-06-24T01:10:11;99842.81;;;21.16;57.91
65666;BME280;52365;47.464;18.976;2023-06-24T01:10:33;99827.66;;;21.28;57.58
65666;BME280;52365;47.464;18.976;2023-06-24T01:10:54;99831.50;;;21.38;57.22
65666;BME280;52365;47.464;18.976;2023-06-24T01:11:15;99831.16;;;21.42;56.82
65666;BME280;52365;47.464;18.976;2023-06-24T01:11:36;99826.53;;;21.50;56.52
65666;BME280;52365;47.464;18.976;2023-06-24T01:11:57;99834.75;;;21.63;56.26
65666;BME280;52365;47.464;18.976;2023-06-24T01:12:18;99824.84;;;21.73;56.07
65666;BME280;52365;47.464;18.976;2023-06-24T01:12:40;99830.84;;;21.72;55.97
65666;BME280;52365;47.464;18.976;2023-06-24T01:13:02;99828.66;;;21.70;56.20
65666;BME280;52365;47.464;18.976;2023-06-24T01:13:23;99825.06;;;21.35;56.98
65666;BME280;52365;47.464;18.976;2023-06-24T01:13:44;99830.38;;;21.15;57.23
65666;BME280;52365;47.464;18.976;2023-06-24T01:14:05;99832.38;;;21.01;57.87
65666;BME280;52365;47.464;18.976;2023-06-24T01:14:26;99830.94;;;21.26;57.28
65666;BME280;52365;47.464;18.976;2023-06-24T01:14:48;99833.66;;;21.13;57.62
65666;BME280;52365;47.464;18.976;2023-06-24T01:15:10;99831.25;;;21.23;57.50
65666;BME280;52365;47.464;18.976;2023-06-24T01:15:31;99823.44;;;21.27;57.01
65666;BME280;52365;47.464;18.976;2023-06-24T01:15:53;99832.75;;;21.37;56.71
65666;BME280;52365;47.464;18.976;2023-06-24T01:16:24;99828.84;;;21.32;56.72
65666;BME280;52365;47.464;18.976;2023-06-24T01:17:00;99824.44;;;21.56;56.27
65666;BME280;52365;47.464;18.976;2023-06-24T01:17:29;99824.41;;;21.82;55.63
65666;BME280;52365;47.464;18.976;2023-06-24T01:18:46;99828.84;;;21.46;56.58
65666;BME280;52365;47.464;18.976;2023-06-24T01:20:31;99821.69;;;21.56;56.23
65666;BME280;52365;47.464;18.976;2023-06-24T01:20:58;99825.37;;;21.45;56.45
65666;BME280;52365;47.464;18.976;2023-06-24T01:21:39;99815.16;;;21.32;56.68
65666;BME280;52365;47.464;18.976;2023-06-24T01:24:31;99819.16;;;21.31;56.95
65666;BME280;52365;47.464;18.976;2023-06-24T01:25:56;99820.63;;;21.46;56.86
65666;BME280;52365;47.464;18.976;2023-06-24T01:27:11;99825.50;;;21.53;56.74
65666;BME280;52365;47.464;18.976;2023-06-24T01:28:06;99814.09;;;21.49;56.69
65666;BME280;52365;47.464;18.976;2023-06-24T01:29:20;99823.59;;;21.34;57.18
65666;BME280;52365;47.464;18.976;2023-06-24T01:31:59;99815.06;;;21.51;57.13
65666;BME280;52365;47.464;18.976;2023-06-24T01:33:43;99808.25;;;21.12;58.08
65666;BME280;52365;47.464;18.976;2023-06-24T01:34:07;99806.00;;;20.98;58.59
65666;BME280;52365;47.464;18.976;2023-06-24T01:34:35;99802.09;;;20.93;59.11
65666;BME280;52365;47.464;18.976;2023-06-24T01:35:00;99812.03;;;21.09;58.50
65666;BME280;52365;47.464;18.976;2023-06-24T01:35:26;99812.03;;;21.09;58.57
65666;BME280;52365;47.464;18.976;2023-06-24T01:35:49;99804.94;;;20.87;59.15
65666;BME280;52365;47.464;18.976;2023-06-24T01:36:08;99794.25;;;21.16;58.25
65666;BME280;52365;47.464;18.976;2023-06-24T01:36:35;99802.69;;;21.18;57.69
65666;BME280;52365;47.464;18.976;2023-06-24T01:37:12;99802.78;;;21.26;57.42
65666;BME280;52365;47.464;18.976;2023-06-24T01:37:38;99806.06;;;21.37;57.27
65666;BME280;52365;47.464;18.976;2023-06-24T01:38:18;99801.25;;;21.44;57.18
65666;BME280;52365;47.464;18.976;2023-06-24T01:38:55;99807.16;;;21.34;57.42
65666;BME280;52365;47.464;18.976;2023-06-24T01:39:18;99802.97;;;21.15;58.07
65666;BME280;52365;47.464;18.976;2023-06-24T01:40:34;99790.91;;;21.36;57.28
65666;BME280;52365;47.464;18.976;2023-06-24T01:41:00;99794.87;;;21.22;57.73
65666;BME280;52365;47.464;18.976;2023-06-24T01:41:24;99791.41;;;21.08;58.16
65666;BME280;52365;47.464;18.976;2023-06-24T01:41:56;99797.91;;;20.92;58.58
65666;BME280;52365;47.464;18.976;2023-06-24T01:42:21;99801.72;;;21.16;58.07
65666;BME280;52365;47.464;18.976;2023-06-24T01:42:44;99792.16;;;21.35;57.44
65666;BME280;52365;47.464;18.976;2023-06-24T01:43:08;99790.13;;;21.23;57.62
65666;BME280;52365;47.464;18.976;2023-06-24T01:43:32;99791.59;;;21.24;57.72
65666;BME280;52365;47.464;18.976;2023-06-24T01:43:55;99798.22;;;21.15;57.88
65666;BME280;52365;47.464;18.976;2023-06-24T01:44:18;99792.69;;;21.21;57.79
65666;BME280;52365;47.464;18.976;2023-06-24T01:44:42;99792.69;;;21.21;57.81
65666;BME280;52365;47.464;18.976;2023-06-24T01:45:06;99791.28;;;21.27;57.73
65666;BME280;52365;47.464;18.976;2023-06-24T01:45:29;99806.75;;;21.11;58.14
65666;BME280;52365;47.464;18.976;2023-06-24T01:45:54;99800.97;;;21.02;58.49
65666;BME280;52365;47.464;18.976;2023-06-24T01:46:17;99800.56;;;21.11;58.56
65666;BME280;52365;47.464;18.976;2023-06-24T01:46:44;99800.78;;;21.26;57.90
65666;BME280;52365;47.464;18.976;2023-06-24T01:47:07;99789.81;;;21.26;57.71
65666;BME280;52365;47.464;18.976;2023-06-24T01:47:29;99794.59;;;21.39;57.47
65666;BME280;52365;47.464;18.976;2023-06-24T01:47:59;99793.00;;;21.44;57.14
65666;BME280;52365;47.464;18.976;2023-06-24T01:48:31;99800.34;;;21.09;58.18
65666;BME280;52365;47.464;18.976;2023-06-24T01:48:59;99803.53;;;21.26;57.98
65666;BME280;52365;47.464;18.976;2023-06-24T01:49:23;99791.41;;;21.22;57.96
65666;BME280;52365;47.464;18.976;2023-06-24T01:49:45;99787.37;;;21.09;58.06
65666;BME280;52365;47.464;18.976;2023-06-24T01:50:07;99794.03;;;21.27;57.80
65666;BME280;52365;47.464;18.976;2023-06-24T01:50:32;99784.53;;;21.15;57.90
65666;BME280;52365;47.464;18.976;2023-06-24T01:51:23;99786.41;;;21.07;58.44
65666;BME280;52365;47.464;18.976;2023-06-24T01:51:46;99780.63;;;21.10;58.28
65666;BME280;52365;47.464;18.976;2023-06-24T01:52:09;99787.47;;;20.91;59.18
65666;BME280;52365;47.464;18.976;2023-06-24T01:52:32;99788.34;;;20.99;58.94
65666;BME280;52365;47.464;18.976;2023-06-24T01:52:56;99775.06;;;21.16;58.49
65666;BME280;52365;47.464;18.976;2023-06-24T01:53:18;99790.56;;;21.13;58.43
65666;BME280;52365;47.464;18.976;2023-06-24T01:53:44;99787.09;;;21.26;58.29
65666;BME280;52365;47.464;18.976;2023-06-24T01:54:11;99787.69;;;21.19;58.44
65666;BME280;52365;47.464;18.976;2023-06-24T01:54:35;99786.34;;;21.26;58.30
65666;BME280;52365;47.464;18.976;2023-06-24T01:54:58;99786.84;;;21.11;58.62
65666;BME280;52365;47.464;18.976;2023-06-24T01:55:21;99786.63;;;20.96;58.96
65666;BME280;52365;47.464;18.976;2023-06-24T01:55:42;99782.53;;;21.02;58.75
65666;BME280;52365;47.464;18.976;2023-06-24T01:56:06;99768.94;;;20.97;59.11
65666;BME280;52365;47.464;18.976;2023-06-24T01:56:29;99782.28;;;20.74;59.72
65666;BME280;52365;47.464;18.976;2023-06-24T01:56:52;99785.69;;;21.06;59.29
65666;BME280;52365;47.464;18.976;2023-06-24T01:57:16;99773.56;;;21.02;59.14
65666;BME280;52365;47.464;18.976;2023-06-24T01:57:40;99774.19;;;20.81;59.90
65666;BME280;52365;47.464;18.976;2023-06-24T01:58:02;99772.81;;;20.88;59.82
65666;BME280;52365;47.464;18.976;2023-06-24T01:58:25;99777.47;;;20.48;60.77
65666;BME280;52365;47.464;18.976;2023-06-24T01:58:47;99785.81;;;20.55;60.78
65666;BME280;52365;47.464;18.976;2023-06-24T01:59:11;99792.22;;;20.58;60.55
65666;BME280;52365;47.464;18.976;2023-06-24T01:59:33;99777.53;;;20.74;59.95
65666;BME280;52365;47.464;18.976;2023-06-24T01:59:55;99784.31;;;20.86;59.46
65666;BME280;52365;47.464;18.976;2023-06-24T02:00:17;99771.97;;;20.93;59.18
65666;BME280;52365;47.464;18.976;2023-06-24T02:00:39;99768.09;;;21.02;58.90
65666;BME280;52365;47.464;18.976;2023-06-24T02:01:02;99777.44;;;20.93;58.97
65666;BME280;52365;47.464;18.976;2023-06-24T02:01:24;99774.22;;;21.08;58.78
65666;BME280;52365;47.464;18.976;2023-06-24T02:01:46;99759.66;;;21.00;59.07
65666;BME280;52365;47.464;18.976;2023-06-24T02:02:08;99765.56;;;20.91;59.11
65666;BME280;52365;47.464;18.976;2023-06-24T02:02:29;99768.06;;;20.88;59.16
65666;BME280;52365;47.464;18.976;2023-06-24T02:02:51;99770.44;;;20.66;59.72
65666;BME280;52365;47.464;18.976;2023-06-24T02:03:14;99768.12;;;20.56;60.35
65666;BME280;52365;47.464;18.976;2023-06-24T02:03:36;99774.91;;;20.69;59.79
65666;BME280;52365;47.464;18.976;2023-06-24T02:04:00;99777.53;;;20.74;59.49
65666;BME280;52365;47.464;18.976;2023-06-24T02:04:23;99773.03;;;20.77;59.35
65666;BME280;52365;47.464;18.976;2023-06-24T02:04:45;99769.88;;;20.54;60.15
65666;BME280;52365;47.464;18.976;2023-06-24T02:05:07;99771.00;;;20.77;59.88
65666;BME280;52365;47.464;18.976;2023-06-24T02:05:31;99768.34;;;20.72;60.16
65666;BME280;52365;47.464;18.976;2023-06-24T02:05:53;99770.19;;;20.96;59.61
65666;BME280;52365;47.464;18.976;2023-06-24T02:06:16;99776.72;;;21.06;59.11
65666;BME280;52365;47.464;18.976;2023-06-24T02:06:39;99759.88;;;21.02;58.84
65666;BME280;52365;47.464;18.976;2023-06-24T02:07:02;99776.41;;;20.96;58.90
65666;BME280;52365;47.464;18.976;2023-06-24T02:07:25;99766.91;;;20.97;58.90
65666;BME280;52365;47.464;18.976;2023-06-24T02:07:51;99768.81;;;21.16;58.52
65666;BME280;52365;47.464;18.976;2023-06-24T02:08:14;99772.22;;;21.08;58.46
65666;BME280;52365;47.464;18.976;2023-06-24T02:08:38;99771.47;;;20.95;58.58
65666;BME280;52365;47.464;18.976;2023-06-24T02:09:01;99768.28;;;20.77;59.21
65666;BME280;52365;47.464;18.976;2023-06-24T02:09:24;99766.75;;;20.63;59.70
65666;BME280;52365;47.464;18.976;2023-06-24T02:09:47;99764.28;;;20.78;59.44
65666;BME280;52365;47.464;18.976;2023-06-24T02:10:09;99779.34;;;20.98;58.89
65666;BME280;52365;47.464;18.976;2023-06-24T02:10:31;99763.47;;;21.10;58.57
65666;BME280;52365;47.464;18.976;2023-06-24T02:10:53;99774.66;;;21.25;58.09
65666;BME280;52365;47.464;18.976;2023-06-24T02:11:16;99765.16;;;21.00;58.26
65666;BME280;52365;47.464;18.976;2023-06-24T02:11:39;99760.69;;;20.83;59.05
65666;BME280;52365;47.464;18.976;2023-06-24T02:12:04;99772.31;;;20.90;59.06